Terminal Aerodrome Forecast
Issued by NWS Grand Rapids, MI

Home | Current Version | Previous Version | Text Only | Print | Product List | Glossary On
Versions: 1 2 3 4 5 6 7 8 9 10 11 12 13 14 15 16 17 18 19 20 21 22 23 24 25 26 27
000
FTUS43 KGRR 101140
TAFGRR
TAF
KGRR 101140Z 1012/1112 23004KT 1 1/2SM -SN BR OVC015
     FM101700 27010KT 3SM -SN BR OVC020
     FM110300 18005KT 3/4SM -SN OVC010=

USA.gov is the U.S. government's official web portal to all federal, state and local government web resources and services.